createdAt,value
2018-12-23T00:01:06.910Z,82.46
2018-12-23T00:03:34.352Z,81.41
2018-12-23T00:11:55.122Z,82.89
2018-12-23T00:14:28.809Z,83.06
2018-12-23T00:17:02.005Z,82.46
2018-12-23T00:19:35.995Z,83.19
2018-12-23T00:22:05.304Z,82.59
2018-12-23T00:24:34.471Z,82.98
2018-12-23T00:27:06.553Z,83.08
2018-12-23T00:29:47.122Z,83.39
2018-12-23T00:32:25.447Z,82.57
2018-12-23T00:34:58.729Z,83.78
2018-12-23T00:37:33.578Z,83.87
2018-12-23T00:40:08.013Z,83.10
2018-12-23T00:42:43.835Z,83.84
2018-12-23T00:45:19.693Z,84.37
2018-12-23T00:47:52.028Z,83.66
2018-12-23T00:50:23.112Z,84.25
2018-12-23T00:52:52.206Z,83.18
2018-12-23T00:55:25.321Z,83.89
2018-12-23T00:57:59.012Z,84.76
2018-12-23T01:00:28.387Z,84.34
2018-12-23T01:02:59.618Z,84.17
2018-12-23T01:05:32.674Z,83.85
2018-12-23T01:08:09.805Z,84.62
2018-12-23T01:10:49.567Z,84.20
2018-12-23T01:13:22.978Z,84.34
2018-12-23T01:15:54.306Z,83.75
2018-12-23T01:18:32.566Z,83.63
2018-12-23T01:21:06.969Z,83.81
2018-12-23T01:23:40.936Z,83.95
2018-12-23T01:26:19.136Z,84.61
2018-12-23T01:28:52.927Z,84.38
2018-12-23T01:31:32.738Z,84.42
2018-12-23T01:34:03.030Z,84.12
2018-12-23T01:36:36.140Z,82.74
2018-12-23T01:39:06.540Z,82.77
2018-12-23T01:41:37.375Z,81.32
2018-12-23T01:44:11.257Z,83.22
2018-12-23T01:46:42.299Z,83.54
2018-12-23T01:49:27.250Z,82.90
2018-12-23T01:51:54.694Z,81.88
2018-12-23T01:54:22.109Z,82.66
2018-12-23T01:56:49.481Z,82.81
2018-12-23T01:59:22.687Z,81.52
2018-12-23T02:01:56.386Z,82.60
2018-12-23T02:04:27.988Z,82.53
2018-12-23T02:06:58.620Z,82.44
2018-12-23T02:09:32.393Z,82.65
2018-12-23T02:12:12.849Z,83.57
2018-12-23T02:14:46.303Z,85.47
2018-12-23T02:17:15.501Z,85.78
2018-12-23T02:19:49.194Z,86.72
2018-12-23T02:22:20.174Z,85.44
2018-12-23T02:24:54.054Z,85.31
2018-12-23T02:27:23.248Z,85.88
2018-12-23T02:29:57.254Z,86.09
2018-12-23T02:32:26.413Z,86.14
2018-12-23T02:34:57.570Z,85.83
2018-12-23T02:40:23.438Z,85.82
2018-12-23T02:42:50.819Z,85.96
2018-12-23T02:45:18.278Z,86.48
2018-12-23T02:47:45.663Z,86.03
2018-12-23T02:50:27.650Z,86.62
2018-12-23T02:53:09.801Z,86.68
2018-12-23T02:58:36.109Z,86.18
2018-12-23T03:01:03.520Z,85.89
2018-12-23T03:03:30.969Z,84.69
2018-12-23T03:06:05.776Z,84.60
2018-12-23T03:08:28.716Z,84.29
2018-12-23T03:10:56.165Z,83.21
2018-12-23T03:13:24.523Z,83.59
2018-12-23T03:15:51.952Z,83.80
2018-12-23T03:18:19.414Z,84.38
2018-12-23T03:20:46.775Z,83.18
2018-12-23T03:23:14.169Z,83.11
2018-12-23T03:25:41.545Z,83.73
2018-12-23T03:28:08.921Z,84.38
2018-12-23T03:30:36.291Z,87.17
2018-12-23T03:33:03.745Z,86.71
2018-12-23T03:35:31.182Z,87.14
2018-12-23T03:37:58.551Z,88.00
2018-12-23T03:40:26.205Z,87.67
2018-12-23T03:42:53.559Z,88.95
2018-12-23T03:45:22.884Z,88.06
2018-12-23T03:47:50.274Z,86.73
2018-12-23T03:50:17.734Z,87.52
2018-12-23T03:52:45.126Z,87.83
2018-12-23T03:55:12.498Z,87.40
2018-12-23T03:57:39.922Z,87.09
2018-12-23T04:00:07.383Z,87.98
2018-12-23T04:02:34.834Z,87.64
2018-12-23T04:05:02.207Z,88.09
2018-12-23T04:07:29.592Z,88.00
2018-12-23T04:09:56.991Z,88.22
2018-12-23T04:12:24.372Z,89.19
2018-12-23T04:14:51.773Z,89.51
2018-12-23T04:17:19.161Z,89.34
2018-12-23T04:19:46.609Z,89.46
2018-12-23T04:22:14.046Z,88.42
2018-12-23T04:24:42.386Z,87.54
2018-12-23T04:27:09.761Z,88.58
2018-12-23T04:29:37.137Z,89.70
2018-12-23T04:32:04.636Z,88.89
2018-12-23T04:34:32.006Z,89.09
2018-12-23T04:36:59.463Z,90.58
2018-12-23T04:39:26.901Z,89.51
2018-12-23T04:41:54.431Z,89.57
2018-12-23T04:44:21.816Z,90.23
2018-12-23T04:46:49.211Z,90.76
2018-12-23T04:49:16.677Z,90.73
2018-12-23T04:51:44.057Z,90.06
2018-12-23T04:54:11.439Z,89.78
2018-12-23T04:56:38.815Z,90.77
2018-12-23T04:59:06.210Z,89.63
2018-12-23T05:01:33.609Z,90.83
2018-12-23T05:04:00.983Z,90.62
2018-12-23T05:06:28.429Z,89.23
2018-12-23T05:08:55.806Z,89.10
2018-12-23T05:11:23.169Z,90.47
2018-12-23T05:13:50.570Z,90.66
2018-12-23T05:16:17.946Z,90.58
2018-12-23T05:18:45.310Z,89.22
2018-12-23T05:21:12.677Z,89.84
2018-12-23T05:23:40.225Z,89.37
2018-12-23T05:26:07.617Z,89.46
2018-12-23T05:28:34.988Z,89.54
2018-12-23T05:31:02.382Z,89.79
2018-12-23T05:33:29.749Z,88.45
2018-12-23T05:35:57.125Z,88.22
2018-12-23T05:38:24.619Z,88.50
2018-12-23T05:40:52.062Z,89.13
2018-12-23T05:43:19.438Z,89.36
2018-12-23T05:45:46.808Z,88.30
2018-12-23T05:48:14.187Z,90.25
2018-12-23T05:50:41.602Z,90.02
2018-12-23T05:53:09.085Z,90.21
2018-12-23T05:55:35.994Z,90.24
2018-12-23T05:58:04.345Z,89.40
2018-12-23T06:00:31.713Z,89.71
2018-12-23T06:02:59.102Z,89.48
2018-12-23T06:05:26.479Z,89.94
2018-12-23T06:08:01.833Z,90.12
2018-12-23T06:10:42.287Z,90.61
2018-12-23T06:13:12.818Z,90.46
2018-12-23T06:15:46.725Z,90.67
2018-12-23T06:18:19.844Z,90.55
2018-12-23T06:20:51.146Z,90.30
2018-12-23T06:23:24.867Z,90.58
2018-12-23T06:25:55.954Z,91.25
2018-12-23T06:28:23.326Z,90.82
2018-12-23T06:30:54.009Z,90.99
2018-12-23T06:33:21.494Z,91.36
2018-12-23T06:35:48.876Z,91.80
2018-12-23T06:38:16.261Z,91.02
2018-12-23T06:40:43.763Z,91.08
2018-12-23T06:43:11.125Z,91.30
2018-12-23T06:45:38.508Z,90.84
2018-12-23T06:48:05.891Z,90.98
2018-12-23T06:50:33.268Z,91.42
2018-12-23T06:53:00.759Z,89.75
2018-12-23T06:55:28.158Z,90.27
2018-12-23T06:57:55.545Z,90.25
2018-12-23T07:00:22.921Z,90.43
2018-12-23T07:02:50.289Z,90.65
2018-12-23T07:05:17.709Z,90.76
2018-12-23T07:07:45.078Z,91.38
2018-12-23T07:10:12.445Z,91.12
2018-12-23T07:12:39.841Z,91.25
2018-12-23T07:15:07.265Z,91.01
2018-12-23T07:17:34.663Z,90.94
2018-12-23T07:20:02.029Z,90.66
2018-12-23T07:22:29.496Z,91.65
2018-12-23T07:24:57.833Z,91.40
2018-12-23T07:27:25.209Z,92.37
2018-12-23T07:29:52.758Z,92.53
2018-12-23T07:32:20.137Z,92.64
2018-12-23T07:34:47.506Z,92.57
2018-12-23T07:37:14.887Z,93.16
2018-12-23T07:39:42.433Z,92.05
2018-12-23T07:42:10.763Z,91.99
2018-12-23T07:44:38.313Z,91.74
2018-12-23T07:47:05.704Z,91.30
2018-12-23T07:49:33.082Z,91.97
2018-12-23T07:52:01.414Z,92.78
2018-12-23T07:54:28.783Z,91.85
2018-12-23T07:56:57.233Z,92.29
2018-12-23T07:59:24.613Z,92.77
2018-12-23T08:01:51.995Z,92.04
2018-12-23T08:04:20.329Z,92.26
2018-12-23T08:10:01.222Z,92.25
2018-12-23T08:12:28.596Z,92.02
2018-12-23T08:14:55.974Z,92.63
2018-12-23T08:17:23.571Z,91.50
2018-12-23T08:19:54.965Z,90.91
2018-12-23T08:22:22.408Z,90.51
2018-12-23T08:24:49.790Z,91.70
2018-12-23T08:27:17.177Z,91.17
2018-12-23T08:29:44.570Z,90.71
2018-12-23T08:32:11.943Z,90.77
2018-12-23T08:34:42.649Z,91.42
2018-12-23T08:37:11.426Z,92.49
2018-12-23T08:39:55.261Z,92.29
2018-12-23T08:42:29.121Z,91.64
2018-12-23T08:45:02.256Z,90.52
2018-12-23T08:50:45.026Z,91.41
2018-12-23T08:53:16.089Z,91.70
2018-12-23T08:55:46.915Z,90.73
2018-12-23T08:58:17.932Z,90.33
2018-12-23T09:00:52.549Z,91.62
2018-12-23T09:03:26.518Z,91.73
2018-12-23T09:06:09.797Z,91.39
2018-12-23T09:08:38.182Z,100.00
2018-12-23T09:13:58.489Z,90.01
2018-12-23T09:16:25.866Z,90.74
2018-12-23T09:18:53.222Z,91.07
2018-12-23T09:21:20.617Z,90.66
2018-12-23T09:23:48.918Z,90.26
2018-12-23T09:26:16.302Z,89.89
2018-12-23T09:28:43.669Z,89.04
2018-12-23T09:31:11.034Z,89.63
2018-12-23T09:33:38.404Z,89.80
2018-12-23T09:36:05.788Z,89.71
2018-12-23T09:38:33.957Z,89.73
2018-12-23T09:41:01.590Z,89.23
2018-12-23T09:43:29.563Z,89.20
2018-12-23T09:45:59.838Z,88.74
2018-12-23T09:49:08.139Z,88.99
2018-12-23T09:51:36.621Z,88.33
2018-12-23T09:54:05.117Z,88.43
2018-12-23T09:56:33.591Z,89.10
2018-12-23T09:59:02.090Z,89.16
2018-12-23T10:04:19.648Z,89.21
2018-12-23T10:06:48.134Z,89.53
2018-12-23T10:09:16.609Z,89.17
2018-12-23T10:11:45.100Z,89.10
2018-12-23T10:14:13.587Z,88.03
2018-12-23T10:16:42.067Z,88.31
2018-12-23T10:19:10.549Z,87.72
2018-12-23T10:21:39.043Z,87.48
2018-12-23T10:24:07.532Z,87.18
2018-12-23T10:26:36.077Z,87.29
2018-12-23T10:29:04.565Z,86.60
2018-12-23T10:31:33.055Z,87.21
2018-12-23T10:34:01.758Z,86.90
2018-12-23T10:36:30.246Z,86.99
2018-12-23T10:38:58.733Z,86.37
2018-12-23T10:41:27.289Z,86.37
2018-12-23T10:43:55.778Z,86.94
2018-12-23T10:46:24.272Z,87.54
2018-12-23T10:48:52.750Z,86.71
2018-12-23T10:51:21.294Z,87.06
2018-12-23T10:53:49.801Z,86.39
2018-12-23T10:56:18.268Z,86.40
2018-12-23T10:58:46.774Z,86.56
2018-12-23T11:01:15.263Z,86.47
2018-12-23T11:03:43.776Z,86.40
2018-12-23T11:06:12.250Z,85.67
2018-12-23T11:08:40.746Z,86.04
2018-12-23T11:11:09.263Z,85.98
2018-12-23T11:13:37.751Z,86.13
2018-12-23T11:16:06.598Z,86.35
2018-12-23T11:18:35.091Z,86.26
2018-12-23T11:21:04.500Z,86.42
2018-12-23T11:23:33.283Z,85.70
2018-12-23T11:26:01.832Z,85.14
2018-12-23T11:28:30.317Z,84.29
2018-12-23T11:30:58.815Z,84.01
2018-12-23T11:33:27.311Z,83.55
2018-12-23T11:35:55.803Z,83.37
2018-12-23T11:38:24.289Z,83.03
2018-12-23T11:40:52.777Z,83.98
2018-12-23T11:43:21.276Z,83.92
2018-12-23T11:45:49.823Z,83.95
2018-12-23T11:48:18.393Z,84.56
2018-12-23T11:50:47.044Z,84.57
2018-12-23T11:53:16.224Z,84.82
2018-12-23T11:55:44.760Z,85.32
2018-12-23T11:58:13.286Z,85.51
2018-12-23T12:00:42.176Z,86.25
2018-12-23T12:03:10.698Z,86.79
2018-12-23T12:05:39.161Z,87.32
2018-12-23T12:08:07.639Z,87.88
2018-12-23T12:10:55.458Z,88.05
2018-12-23T12:13:24.126Z,88.44
2018-12-23T12:15:53.038Z,88.61
2018-12-23T12:18:21.531Z,89.25
2018-12-23T12:20:50.039Z,89.55
2018-12-23T12:23:18.516Z,89.71
2018-12-23T12:25:46.993Z,89.67
2018-12-23T12:28:16.473Z,89.83
2018-12-23T12:30:44.952Z,89.74
2018-12-23T12:33:13.438Z,89.96
2018-12-23T12:35:41.924Z,90.37
2018-12-23T12:38:10.410Z,89.83
2018-12-23T12:40:38.900Z,90.56
2018-12-23T12:43:07.394Z,90.28
2018-12-23T12:45:35.883Z,91.02
2018-12-23T12:48:05.337Z,91.31
2018-12-23T12:50:34.734Z,94.86
2018-12-23T12:53:03.389Z,84.56
2018-12-23T12:55:32.467Z,82.71
2018-12-23T12:58:00.949Z,82.65
2018-12-23T13:00:29.569Z,84.44
2018-12-23T13:02:58.405Z,86.21
2018-12-23T13:05:27.321Z,86.42
2018-12-23T13:07:56.168Z,89.11
2018-12-23T13:10:25.008Z,89.00
2018-12-23T13:12:53.839Z,91.53
2018-12-23T13:15:22.758Z,91.39
2018-12-23T13:17:51.609Z,92.27
2018-12-23T13:20:20.473Z,91.86
2018-12-23T13:22:49.193Z,92.31
2018-12-23T13:25:17.696Z,91.18
2018-12-23T13:27:46.532Z,92.40
2018-12-23T13:30:15.566Z,92.46
2018-12-23T13:32:44.472Z,93.26
2018-12-23T13:35:13.153Z,92.69
2018-12-23T13:37:41.941Z,92.23
2018-12-23T13:40:19.313Z,93.16
2018-12-23T13:43:12.260Z,92.43
2018-12-23T13:45:58.993Z,93.08
2018-12-23T13:48:45.474Z,92.87
2018-12-23T13:51:30.043Z,93.60
2018-12-23T13:54:07.288Z,94.51
2018-12-23T13:56:50.988Z,94.40
2018-12-23T13:59:30.877Z,94.69
2018-12-23T14:02:30.240Z,96.04
2018-12-23T14:05:21.521Z,95.52
2018-12-23T14:08:12.551Z,95.97
2018-12-23T14:10:44.351Z,95.30
2018-12-23T14:13:12.838Z,94.89
2018-12-23T14:15:41.346Z,94.21
2018-12-23T14:18:11.797Z,94.12
2018-12-23T14:20:40.273Z,93.77
2018-12-23T14:23:08.765Z,94.21
2018-12-23T14:28:36.752Z,94.85
2018-12-23T14:31:05.232Z,94.25
2018-12-23T14:33:33.717Z,94.39
2018-12-23T14:36:02.205Z,94.23
2018-12-23T14:38:30.699Z,94.05
2018-12-23T14:40:59.419Z,94.80
2018-12-23T14:43:27.979Z,94.83
2018-12-23T14:45:56.704Z,94.91
2018-12-23T14:48:26.126Z,95.17
2018-12-23T14:50:55.533Z,94.58
2018-12-23T14:53:24.018Z,95.05
2018-12-23T14:55:52.501Z,94.33
2018-12-23T14:58:20.992Z,93.71
2018-12-23T15:00:49.469Z,94.43
2018-12-23T15:03:17.948Z,94.63
2018-12-23T15:05:46.452Z,94.32
2018-12-23T15:08:14.926Z,94.03
2018-12-23T15:10:44.472Z,94.36
2018-12-23T15:13:12.944Z,94.70
2018-12-23T15:15:43.443Z,94.96
2018-12-23T15:18:11.918Z,95.13
2018-12-23T15:20:40.409Z,94.43
2018-12-23T15:23:10.915Z,94.31
2018-12-23T15:25:39.104Z,94.43
2018-12-23T15:28:07.585Z,94.80
2018-12-23T15:30:36.321Z,95.42
2018-12-23T15:33:04.801Z,95.37
2018-12-23T15:35:33.456Z,95.30
2018-12-23T15:38:02.169Z,95.29
2018-12-23T15:40:30.662Z,95.05
2018-12-23T15:42:59.154Z,95.16
2018-12-23T15:45:27.741Z,95.42
2018-12-23T15:47:56.193Z,96.56
2018-12-23T15:50:24.676Z,96.23
2018-12-23T15:52:53.166Z,96.20
2018-12-23T15:55:22.310Z,96.34
2018-12-23T15:57:50.802Z,95.88
2018-12-23T16:00:19.521Z,95.64
2018-12-23T16:02:48.277Z,95.85
2018-12-23T16:05:16.770Z,96.07
2018-12-23T16:07:45.324Z,95.89
2018-12-23T16:10:13.741Z,96.33
2018-12-23T16:12:47.196Z,96.22
2018-12-23T16:15:15.682Z,95.49
2018-12-23T16:17:44.173Z,96.32
2018-12-23T16:20:13.127Z,96.55
2018-12-23T16:22:41.613Z,96.39
2018-12-23T16:25:10.128Z,96.34
2018-12-23T16:27:38.616Z,97.11
2018-12-23T16:30:09.966Z,96.21
2018-12-23T16:32:45.186Z,97.01
2018-12-23T16:35:13.996Z,96.59
2018-12-23T16:37:42.497Z,96.62
2018-12-23T16:40:11.907Z,97.97
2018-12-23T16:42:40.387Z,98.12
2018-12-23T16:45:08.889Z,98.18
2018-12-23T16:47:37.530Z,98.48
2018-12-23T16:50:07.564Z,99.02
2018-12-23T16:52:36.038Z,98.97
2018-12-23T16:55:04.903Z,99.09
2018-12-23T16:57:33.385Z,98.31
2018-12-23T17:00:01.878Z,99.03
2018-12-23T17:02:30.342Z,98.38
2018-12-23T17:04:58.832Z,99.48
2018-12-23T17:07:27.326Z,99.69
2018-12-23T17:09:57.847Z,99.78
2018-12-23T17:12:26.329Z,99.69
2018-12-23T17:14:54.903Z,100.00
2018-12-23T17:17:23.381Z,100.00
2018-12-23T17:19:51.876Z,100.00
2018-12-23T17:22:20.350Z,100.00
2018-12-23T17:24:48.847Z,100.00
2018-12-23T17:27:17.337Z,100.00
2018-12-23T17:29:46.063Z,100.00
2018-12-23T17:32:14.575Z,100.00
2018-12-23T17:34:43.057Z,100.00
2018-12-23T17:37:11.547Z,100.00
2018-12-23T17:39:41.037Z,100.00
2018-12-23T17:42:09.534Z,100.00
2018-12-23T17:44:38.326Z,100.00
2018-12-23T17:47:07.821Z,100.00
2018-12-23T17:49:36.330Z,99.90
2018-12-23T17:52:04.986Z,99.49
2018-12-23T17:54:33.471Z,99.91
2018-12-23T17:57:01.972Z,100.00
2018-12-23T17:59:30.447Z,100.00
2018-12-23T18:01:58.932Z,100.00
2018-12-23T18:04:28.424Z,100.00
2018-12-23T18:07:03.729Z,100.00
2018-12-23T18:09:27.447Z,100.00
2018-12-23T18:11:55.950Z,100.00
2018-12-23T18:14:24.725Z,100.00
2018-12-23T18:16:53.246Z,100.00
2018-12-23T18:19:21.689Z,100.00
2018-12-23T18:21:50.182Z,100.00
2018-12-23T18:24:18.662Z,100.00
2018-12-23T18:26:47.142Z,99.69
2018-12-23T18:29:15.903Z,99.39
2018-12-23T18:31:44.376Z,99.84
2018-12-23T18:34:13.866Z,100.00
2018-12-23T18:37:01.681Z,100.00
2018-12-23T18:39:30.265Z,99.81
2018-12-23T18:41:58.819Z,99.11
2018-12-23T18:44:27.363Z,99.23
2018-12-23T18:46:55.826Z,98.95
2018-12-23T18:49:24.320Z,98.68
2018-12-23T18:51:52.793Z,98.64
2018-12-23T18:54:21.289Z,99.00
2018-12-23T18:56:49.925Z,98.75
2018-12-23T18:59:18.549Z,98.34
2018-12-23T19:04:55.257Z,98.25
2018-12-23T19:07:23.755Z,99.15
2018-12-23T19:10:30.918Z,98.37
2018-12-23T19:13:37.969Z,98.44
2018-12-23T19:16:46.431Z,98.70
2018-12-23T19:19:54.925Z,98.87
2018-12-23T19:23:02.227Z,98.35
2018-12-23T19:26:09.474Z,97.95
2018-12-23T19:28:58.754Z,98.41
2018-12-23T19:32:05.827Z,98.04
2018-12-23T19:35:12.899Z,98.20
2018-12-23T19:38:21.370Z,97.59
2018-12-23T19:41:30.092Z,97.77
2018-12-23T19:44:19.410Z,98.28
2018-12-23T19:47:26.494Z,97.91
2018-12-23T19:50:34.985Z,97.83
2018-12-23T19:53:42.149Z,98.31
2018-12-23T19:56:49.256Z,98.22
2018-12-23T19:59:56.416Z,97.83
2018-12-23T20:03:03.492Z,97.36
2018-12-23T20:06:10.589Z,97.33
2018-12-23T20:09:17.783Z,97.30
2018-12-23T20:12:26.187Z,97.57
2018-12-23T20:15:33.490Z,97.50
2018-12-23T20:18:40.576Z,97.85
2018-12-23T20:21:47.664Z,97.80
2018-12-23T20:24:36.946Z,98.05
2018-12-23T20:27:44.060Z,98.48
2018-12-23T20:30:51.134Z,98.98
2018-12-23T20:33:58.210Z,98.78
2018-12-23T20:37:06.671Z,98.40
2018-12-23T20:40:15.143Z,98.71
2018-12-23T20:43:23.606Z,98.41
2018-12-23T20:46:30.765Z,99.06
2018-12-23T20:49:37.851Z,98.87
2018-12-23T20:52:45.146Z,98.78
2018-12-23T20:55:52.238Z,98.93
2018-12-23T20:59:00.708Z,98.92
2018-12-23T21:01:49.973Z,99.38
2018-12-23T21:04:58.441Z,98.86
2018-12-23T21:08:05.504Z,99.04
2018-12-23T21:11:16.060Z,100.00
2018-12-23T21:14:22.786Z,100.00
2018-12-23T21:17:31.237Z,100.00
2018-12-23T21:20:38.400Z,100.00
2018-12-23T21:23:47.075Z,100.00
2018-12-23T21:26:54.153Z,100.00
2018-12-23T21:30:01.240Z,100.00
2018-12-23T21:33:08.306Z,100.00
2018-12-23T21:36:15.387Z,100.00
2018-12-23T21:39:04.643Z,100.00
2018-12-23T21:41:44.957Z,100.00
2018-12-23T21:44:25.509Z,100.00
2018-12-23T21:47:32.696Z,100.00
2018-12-23T21:50:40.055Z,100.00
2018-12-23T21:53:48.569Z,100.00
2018-12-23T21:56:56.969Z,100.00
2018-12-23T22:00:05.424Z,100.00
2018-12-23T22:03:16.987Z,100.00
2018-12-23T22:06:06.312Z,100.00
2018-12-23T22:09:14.770Z,100.00
2018-12-23T22:12:04.132Z,100.00
2018-12-23T22:14:51.965Z,100.00
2018-12-23T22:17:20.450Z,100.00
2018-12-23T22:20:08.292Z,100.00
2018-12-23T22:22:56.118Z,100.00
2018-12-23T22:25:24.644Z,100.00
2018-12-23T22:27:53.133Z,100.00
2018-12-23T22:30:21.674Z,100.00
2018-12-23T22:33:09.510Z,100.00
2018-12-23T22:35:37.994Z,100.00
2018-12-23T22:38:18.850Z,100.00
2018-12-23T22:40:47.397Z,100.00
2018-12-23T22:43:15.895Z,100.00
2018-12-23T22:45:44.606Z,100.00
2018-12-23T22:48:13.123Z,100.00
2018-12-23T22:51:01.116Z,100.00
2018-12-23T22:53:29.732Z,100.00
2018-12-23T22:55:58.128Z,100.00
2018-12-23T22:58:46.180Z,99.98
2018-12-23T23:01:34.004Z,99.03
2018-12-23T23:04:02.471Z,99.24
2018-12-23T23:06:50.288Z,99.50
2018-12-23T23:09:39.031Z,100.00
2018-12-23T23:12:26.881Z,99.92
2018-12-23T23:14:55.366Z,99.20
2018-12-23T23:17:23.888Z,98.75
2018-12-23T23:20:11.807Z,99.10
2018-12-23T23:22:59.730Z,99.30
2018-12-23T23:25:28.317Z,99.29
2018-12-23T23:27:56.804Z,98.72
2018-12-23T23:30:25.525Z,98.16
2018-12-23T23:32:53.985Z,98.65
2018-12-23T23:35:41.803Z,98.96
2018-12-23T23:38:10.281Z,98.97
2018-12-23T23:40:58.120Z,98.50
2018-12-23T23:43:26.594Z,98.02
2018-12-23T23:46:14.502Z,97.59
2018-12-23T23:49:02.318Z,96.82
2018-12-23T23:51:50.383Z,97.22
2018-12-23T23:54:38.195Z,96.66
2018-12-23T23:57:26.109Z,96.93
2018-12-23T23:59:54.586Z,96.88
